Terminal Aerodrome Forecast
Issued by NWS

Home | Current Version | Previous Version | Text Only | Print | Product List | Glossary On
Versions: 1 2 3 4 5 6 7 8 9 10 11 12 13 14 15 16 17 18 19 20 21 22 23 24 25
232
FTUS43 KIWX 110318 AAC
TAFSBN
TAF AMD
KSBN 110318Z 1103/1124 26010KT 5SM -SHSN OVC035
      TEMPO 1103/1107 2SM -SHSN OVC025
     FM110700 27009KT 4SM -SHSN OVC030=

USA.gov is the U.S. government's official web portal to all federal, state and local government web resources and services.